Terminal Aerodrome Forecast
Issued by NWS Omaha/Valley, NE

Home | Current Version | Previous Version | Text Only | Print | Product List | Glossary Off
Versions: 1 2 3 4 5 6 7 8 9 10 11 12 13 14 15 16 17 18

000
FTUS43 KOAX 261429 AAB
TAFOFK
TAF AMD
KOFK 261429Z 2614/2712 02007KT P6SM VCSH BKN006 OVC080
      TEMPO 2614/2618 -SHRA BKN025
     FM261800 06007KT P6SM VCSH OVC025
      TEMPO 2618/2620 4SM -TSRA OVC015CB
     FM270000 02012KT P6SM BKN035
     FM270300 01007KT P6SM SCT040=

USA.gov is the U.S. government's official web portal to all federal, state and local government web resources and services.